sensor_id;sensor_type;location;lat;lon;timestamp;temperature;humidity
39099;DHT22;24844;52.380;7.018;2022-11-03T00:01:53;11.30;99.90
39099;DHT22;24844;52.380;7.018;2022-11-03T00:04:19;11.30;99.90
39099;DHT22;24844;52.380;7.018;2022-11-03T00:06:47;11.30;99.90
39099;DHT22;24844;52.380;7.018;2022-11-03T00:09:13;11.40;99.90
39099;DHT22;24844;52.380;7.018;2022-11-03T00:11:39;11.40;99.90
39099;DHT22;24844;52.380;7.018;2022-11-03T00:14:06;11.50;99.90
39099;DHT22;24844;52.380;7.018;2022-11-03T00:16:32;11.50;99.90
39099;DHT22;24844;52.380;7.018;2022-11-03T00:18:57;11.40;99.90
39099;DHT22;24844;52.380;7.018;2022-11-03T00:21:23;11.60;99.90
39099;DHT22;24844;52.380;7.018;2022-11-03T00:23:48;11.60;99.90
39099;DHT22;24844;52.380;7.018;2022-11-03T00:28:43;11.60;99.90
39099;DHT22;24844;52.380;7.018;2022-11-03T00:31:10;11.70;99.90
39099;DHT22;24844;52.380;7.018;2022-11-03T00:33:37;11.80;99.90
39099;DHT22;24844;52.380;7.018;2022-11-03T00:36:03;11.80;99.90
39099;DHT22;24844;52.380;7.018;2022-11-03T00:38:29;11.70;99.90
39099;DHT22;24844;52.380;7.018;2022-11-03T00:40:58;11.70;99.90
39099;DHT22;24844;52.380;7.018;2022-11-03T00:43:24;11.70;99.90
39099;DHT22;24844;52.380;7.018;2022-11-03T00:45:50;11.80;99.90
39099;DHT22;24844;52.380;7.018;2022-11-03T00:48:15;11.80;99.90
39099;DHT22;24844;52.380;7.018;2022-11-03T00:51:04;11.70;99.90
39099;DHT22;24844;52.380;7.018;2022-11-03T00:53:31;11.60;99.90
39099;DHT22;24844;52.380;7.018;2022-11-03T00:55:56;11.70;99.90
39099;DHT22;24844;52.380;7.018;2022-11-03T00:58:22;11.70;99.90
39099;DHT22;24844;52.380;7.018;2022-11-03T01:00:48;11.70;99.90
39099;DHT22;24844;52.380;7.018;2022-11-03T01:03:13;11.80;99.90
39099;DHT22;24844;52.380;7.018;2022-11-03T01:05:39;11.70;99.90
39099;DHT22;24844;52.380;7.018;2022-11-03T01:08:24;11.80;99.90
39099;DHT22;24844;52.380;7.018;2022-11-03T01:10:49;11.80;99.90
39099;DHT22;24844;52.380;7.018;2022-11-03T01:13:33;11.70;99.90
39099;DHT22;24844;52.380;7.018;2022-11-03T01:15:59;11.80;99.90
39099;DHT22;24844;52.380;7.018;2022-11-03T01:18:24;11.80;99.90
39099;DHT22;24844;52.380;7.018;2022-11-03T01:20:56;11.80;99.90
39099;DHT22;24844;52.380;7.018;2022-11-03T01:23:24;11.80;99.90
39099;DHT22;24844;52.380;7.018;2022-11-03T01:25:50;11.70;99.90
39099;DHT22;24844;52.380;7.018;2022-11-03T01:28:15;11.70;99.90
39099;DHT22;24844;52.380;7.018;2022-11-03T01:30:41;11.70;99.90
39099;DHT22;24844;52.380;7.018;2022-11-03T01:33:06;11.60;99.90
39099;DHT22;24844;52.380;7.018;2022-11-03T01:35:32;11.70;99.90
39099;DHT22;24844;52.380;7.018;2022-11-03T01:37:57;11.70;99.90
39099;DHT22;24844;52.380;7.018;2022-11-03T01:40:23;11.70;99.90
39099;DHT22;24844;52.380;7.018;2022-11-03T01:42:48;11.70;99.90
39099;DHT22;24844;52.380;7.018;2022-11-03T01:45:14;11.70;99.90
39099;DHT22;24844;52.380;7.018;2022-11-03T01:47:39;11.70;99.90
39099;DHT22;24844;52.380;7.018;2022-11-03T01:50:07;11.70;99.90
39099;DHT22;24844;52.380;7.018;2022-11-03T01:55:06;11.60;99.90
39099;DHT22;24844;52.380;7.018;2022-11-03T01:57:35;11.60;99.90
39099;DHT22;24844;52.380;7.018;2022-11-03T02:00:01;11.60;99.90
39099;DHT22;24844;52.380;7.018;2022-11-03T02:02:29;11.60;99.90
39099;DHT22;24844;52.380;7.018;2022-11-03T02:04:54;11.70;99.90
39099;DHT22;24844;52.380;7.018;2022-11-03T02:07:44;11.70;99.90
39099;DHT22;24844;52.380;7.018;2022-11-03T02:10:07;11.60;99.90
39099;DHT22;24844;52.380;7.018;2022-11-03T02:12:33;11.50;99.90
39099;DHT22;24844;52.380;7.018;2022-11-03T02:15:09;11.50;99.90
39099;DHT22;24844;52.380;7.018;2022-11-03T02:17:36;11.50;99.90
39099;DHT22;24844;52.380;7.018;2022-11-03T02:20:05;11.50;99.90
39099;DHT22;24844;52.380;7.018;2022-11-03T02:22:39;11.40;99.90
39099;DHT22;24844;52.380;7.018;2022-11-03T02:25:11;11.40;99.90
39099;DHT22;24844;52.380;7.018;2022-11-03T02:27:38;11.40;99.90
39099;DHT22;24844;52.380;7.018;2022-11-03T02:30:04;11.30;99.90
39099;DHT22;24844;52.380;7.018;2022-11-03T02:32:36;11.40;99.90
39099;DHT22;24844;52.380;7.018;2022-11-03T02:35:07;11.40;99.90
39099;DHT22;24844;52.380;7.018;2022-11-03T02:37:37;11.40;99.90
39099;DHT22;24844;52.380;7.018;2022-11-03T02:40:14;11.40;99.90
39099;DHT22;24844;52.380;7.018;2022-11-03T02:42:41;11.40;99.90
39099;DHT22;24844;52.380;7.018;2022-11-03T02:45:09;11.40;99.90
39099;DHT22;24844;52.380;7.018;2022-11-03T02:47:36;11.40;99.90
39099;DHT22;24844;52.380;7.018;2022-11-03T02:50:04;11.50;99.90
39099;DHT22;24844;52.380;7.018;2022-11-03T02:52:35;11.40;99.90
39099;DHT22;24844;52.380;7.018;2022-11-03T02:55:06;11.50;99.90
39099;DHT22;24844;52.380;7.018;2022-11-03T02:57:33;11.50;99.90
39099;DHT22;24844;52.380;7.018;2022-11-03T03:00:02;11.50;99.90
39099;DHT22;24844;52.380;7.018;2022-11-03T03:02:34;11.60;99.90
39099;DHT22;24844;52.380;7.018;2022-11-03T03:05:04;11.60;99.90
39099;DHT22;24844;52.380;7.018;2022-11-03T03:07:36;11.60;99.90
39099;DHT22;24844;52.380;7.018;2022-11-03T03:10:03;11.60;99.90
39099;DHT22;24844;52.380;7.018;2022-11-03T03:12:31;11.60;99.90
39099;DHT22;24844;52.380;7.018;2022-11-03T03:14:58;11.70;99.90
39099;DHT22;24844;52.380;7.018;2022-11-03T03:22:40;11.80;99.90
39099;DHT22;24844;52.380;7.018;2022-11-03T03:25:12;11.80;99.90
39099;DHT22;24844;52.380;7.018;2022-11-03T03:27:38;11.80;99.90
39099;DHT22;24844;52.380;7.018;2022-11-03T03:30:06;11.90;99.90
39099;DHT22;24844;52.380;7.018;2022-11-03T03:32:36;11.80;99.90
39099;DHT22;24844;52.380;7.018;2022-11-03T03:35:03;11.80;99.90
39099;DHT22;24844;52.380;7.018;2022-11-03T03:37:29;11.80;99.90
39099;DHT22;24844;52.380;7.018;2022-11-03T03:39:57;11.80;99.90
39099;DHT22;24844;52.380;7.018;2022-11-03T03:42:24;11.80;99.90
39099;DHT22;24844;52.380;7.018;2022-11-03T03:44:50;11.80;99.90
39099;DHT22;24844;52.380;7.018;2022-11-03T03:47:18;11.70;99.90
39099;DHT22;24844;52.380;7.018;2022-11-03T03:49:45;11.70;99.90
39099;DHT22;24844;52.380;7.018;2022-11-03T03:52:11;11.70;99.90
39099;DHT22;24844;52.380;7.018;2022-11-03T03:54:36;11.70;99.90
39099;DHT22;24844;52.380;7.018;2022-11-03T03:57:03;11.60;99.90
39099;DHT22;24844;52.380;7.018;2022-11-03T03:59:29;11.60;99.90
39099;DHT22;24844;52.380;7.018;2022-11-03T04:01:55;11.60;99.90
39099;DHT22;24844;52.380;7.018;2022-11-03T04:04:20;11.60;99.90
39099;DHT22;24844;52.380;7.018;2022-11-03T04:06:46;11.60;99.90
39099;DHT22;24844;52.380;7.018;2022-11-03T04:09:11;11.60;99.90
39099;DHT22;24844;52.380;7.018;2022-11-03T04:11:37;11.60;99.90
39099;DHT22;24844;52.380;7.018;2022-11-03T04:14:21;11.60;99.90
39099;DHT22;24844;52.380;7.018;2022-11-03T04:17:09;11.60;99.90
39099;DHT22;24844;52.380;7.018;2022-11-03T04:19:59;11.60;99.90
39099;DHT22;24844;52.380;7.018;2022-11-03T04:22:43;11.70;99.90
39099;DHT22;24844;52.380;7.018;2022-11-03T04:25:09;11.70;99.90
39099;DHT22;24844;52.380;7.018;2022-11-03T04:27:35;11.70;99.90
39099;DHT22;24844;52.380;7.018;2022-11-03T04:32:27;11.70;99.90
39099;DHT22;24844;52.380;7.018;2022-11-03T04:34:53;11.70;99.90
39099;DHT22;24844;52.380;7.018;2022-11-03T04:37:18;11.70;99.90
39099;DHT22;24844;52.380;7.018;2022-11-03T04:39:44;11.60;99.90
39099;DHT22;24844;52.380;7.018;2022-11-03T04:42:19;11.60;99.90
39099;DHT22;24844;52.380;7.018;2022-11-03T04:44:45;11.70;99.90
39099;DHT22;24844;52.380;7.018;2022-11-03T04:47:11;11.70;99.90
39099;DHT22;24844;52.380;7.018;2022-11-03T04:49:37;11.70;99.90
39099;DHT22;24844;52.380;7.018;2022-11-03T04:52:05;11.70;99.90
39099;DHT22;24844;52.380;7.018;2022-11-03T04:54:34;11.70;99.90
39099;DHT22;24844;52.380;7.018;2022-11-03T04:57:03;11.70;99.90
39099;DHT22;24844;52.380;7.018;2022-11-03T04:59:29;11.70;99.90
39099;DHT22;24844;52.380;7.018;2022-11-03T05:01:55;11.70;99.90
39099;DHT22;24844;52.380;7.018;2022-11-03T05:04:20;11.70;99.90
39099;DHT22;24844;52.380;7.018;2022-11-03T05:06:50;11.70;99.90
39099;DHT22;24844;52.380;7.018;2022-11-03T05:09:18;11.70;99.90
39099;DHT22;24844;52.380;7.018;2022-11-03T05:11:45;11.70;99.90
39099;DHT22;24844;52.380;7.018;2022-11-03T05:16:38;11.70;99.90
39099;DHT22;24844;52.380;7.018;2022-11-03T05:19:07;11.70;99.90
39099;DHT22;24844;52.380;7.018;2022-11-03T05:21:35;11.60;99.90
39099;DHT22;24844;52.380;7.018;2022-11-03T05:24:01;11.70;99.90
39099;DHT22;24844;52.380;7.018;2022-11-03T05:26:28;11.70;99.90
39099;DHT22;24844;52.380;7.018;2022-11-03T05:29:02;11.70;99.90
39099;DHT22;24844;52.380;7.018;2022-11-03T05:31:29;11.70;99.90
39099;DHT22;24844;52.380;7.018;2022-11-03T05:33:56;11.70;99.90
39099;DHT22;24844;52.380;7.018;2022-11-03T05:36:23;11.70;99.90
39099;DHT22;24844;52.380;7.018;2022-11-03T05:38:49;11.80;99.90
39099;DHT22;24844;52.380;7.018;2022-11-03T05:41:22;11.80;99.90
39099;DHT22;24844;52.380;7.018;2022-11-03T05:43:51;11.80;99.90
39099;DHT22;24844;52.380;7.018;2022-11-03T05:46:18;11.80;99.90
39099;DHT22;24844;52.380;7.018;2022-11-03T05:48:43;11.80;99.90
39099;DHT22;24844;52.380;7.018;2022-11-03T05:51:20;11.90;99.90
39099;DHT22;24844;52.380;7.018;2022-11-03T05:53:46;11.90;99.90
39099;DHT22;24844;52.380;7.018;2022-11-03T05:56:17;11.90;99.90
39099;DHT22;24844;52.380;7.018;2022-11-03T05:58:43;11.90;99.90
39099;DHT22;24844;52.380;7.018;2022-11-03T06:01:22;11.90;99.90
39099;DHT22;24844;52.380;7.018;2022-11-03T06:03:49;11.90;99.90
39099;DHT22;24844;52.380;7.018;2022-11-03T06:06:17;11.90;99.90
39099;DHT22;24844;52.380;7.018;2022-11-03T06:08:45;11.90;99.90
39099;DHT22;24844;52.380;7.018;2022-11-03T06:11:15;11.90;99.90
39099;DHT22;24844;52.380;7.018;2022-11-03T06:13:40;11.80;99.90
39099;DHT22;24844;52.380;7.018;2022-11-03T06:18:37;11.90;99.90
39099;DHT22;24844;52.380;7.018;2022-11-03T06:21:07;11.90;99.90
39099;DHT22;24844;52.380;7.018;2022-11-03T06:23:34;11.80;99.90
39099;DHT22;24844;52.380;7.018;2022-11-03T06:26:00;11.80;99.90
39099;DHT22;24844;52.380;7.018;2022-11-03T06:28:31;11.80;99.90
39099;DHT22;24844;52.380;7.018;2022-11-03T06:30:59;11.80;99.90
39099;DHT22;24844;52.380;7.018;2022-11-03T06:33:25;11.90;99.90
39099;DHT22;24844;52.380;7.018;2022-11-03T06:35:53;11.90;99.90
39099;DHT22;24844;52.380;7.018;2022-11-03T06:38:23;11.90;99.90
39099;DHT22;24844;52.380;7.018;2022-11-03T06:40:49;11.90;99.90
39099;DHT22;24844;52.380;7.018;2022-11-03T06:43:22;11.90;99.90
39099;DHT22;24844;52.380;7.018;2022-11-03T06:45:49;11.90;99.90
39099;DHT22;24844;52.380;7.018;2022-11-03T06:48:19;11.80;99.90
39099;DHT22;24844;52.380;7.018;2022-11-03T06:50:45;11.80;99.90
39099;DHT22;24844;52.380;7.018;2022-11-03T06:53:10;11.70;99.90
39099;DHT22;24844;52.380;7.018;2022-11-03T06:55:36;11.70;99.90
39099;DHT22;24844;52.380;7.018;2022-11-03T06:58:14;11.70;99.90
39099;DHT22;24844;52.380;7.018;2022-11-03T07:00:40;11.70;99.90
39099;DHT22;24844;52.380;7.018;2022-11-03T07:03:13;11.70;99.90
39099;DHT22;24844;52.380;7.018;2022-11-03T07:05:40;11.80;99.90
39099;DHT22;24844;52.380;7.018;2022-11-03T07:08:20;11.80;99.90
39099;DHT22;24844;52.380;7.018;2022-11-03T07:10:46;11.80;99.90
39099;DHT22;24844;52.380;7.018;2022-11-03T07:13:13;11.80;99.90
39099;DHT22;24844;52.380;7.018;2022-11-03T07:15:40;11.80;99.90
39099;DHT22;24844;52.380;7.018;2022-11-03T07:18:14;11.80;99.90
39099;DHT22;24844;52.380;7.018;2022-11-03T07:20:41;11.80;99.90
39099;DHT22;24844;52.380;7.018;2022-11-03T07:23:08;11.90;99.90
39099;DHT22;24844;52.380;7.018;2022-11-03T07:25:35;11.90;99.90
39099;DHT22;24844;52.380;7.018;2022-11-03T07:28:00;11.80;99.90
39099;DHT22;24844;52.380;7.018;2022-11-03T07:30:28;11.90;99.90
39099;DHT22;24844;52.380;7.018;2022-11-03T07:32:56;11.90;99.90
39099;DHT22;24844;52.380;7.018;2022-11-03T07:35:25;11.90;99.90
39099;DHT22;24844;52.380;7.018;2022-11-03T07:37:52;11.90;99.90
39099;DHT22;24844;52.380;7.018;2022-11-03T07:40:20;12.00;99.90
39099;DHT22;24844;52.380;7.018;2022-11-03T07:42:46;12.00;99.90
39099;DHT22;24844;52.380;7.018;2022-11-03T07:47:55;12.10;99.90
39099;DHT22;24844;52.380;7.018;2022-11-03T07:50:21;12.10;99.90
39099;DHT22;24844;52.380;7.018;2022-11-03T07:52:46;12.10;99.90
39099;DHT22;24844;52.380;7.018;2022-11-03T07:55:12;12.10;99.90
39099;DHT22;24844;52.380;7.018;2022-11-03T07:57:38;12.20;99.90
39099;DHT22;24844;52.380;7.018;2022-11-03T08:00:05;12.20;99.90
39099;DHT22;24844;52.380;7.018;2022-11-03T08:02:53;12.30;99.90
39099;DHT22;24844;52.380;7.018;2022-11-03T08:05:21;12.30;99.90
39099;DHT22;24844;52.380;7.018;2022-11-03T08:07:46;12.30;99.90
39099;DHT22;24844;52.380;7.018;2022-11-03T08:10:12;12.30;99.90
39099;DHT22;24844;52.380;7.018;2022-11-03T08:12:38;12.40;99.90
39099;DHT22;24844;52.380;7.018;2022-11-03T08:15:03;12.40;99.90
39099;DHT22;24844;52.380;7.018;2022-11-03T08:17:29;12.40;99.90
39099;DHT22;24844;52.380;7.018;2022-11-03T08:19:54;12.50;99.90
39099;DHT22;24844;52.380;7.018;2022-11-03T08:22:20;12.50;99.90
39099;DHT22;24844;52.380;7.018;2022-11-03T08:24:47;12.50;99.90
39099;DHT22;24844;52.380;7.018;2022-11-03T08:27:13;12.60;99.90
39099;DHT22;24844;52.380;7.018;2022-11-03T08:29:38;12.60;99.90
39099;DHT22;24844;52.380;7.018;2022-11-03T08:32:04;12.70;99.90
39099;DHT22;24844;52.380;7.018;2022-11-03T08:34:29;12.70;99.90
39099;DHT22;24844;52.380;7.018;2022-11-03T08:36:55;12.80;99.90
39099;DHT22;24844;52.380;7.018;2022-11-03T08:39:20;12.80;99.90
39099;DHT22;24844;52.380;7.018;2022-11-03T08:41:46;12.90;99.90
39099;DHT22;24844;52.380;7.018;2022-11-03T08:44:11;13.00;99.90
39099;DHT22;24844;52.380;7.018;2022-11-03T08:46:36;13.10;99.90
39099;DHT22;24844;52.380;7.018;2022-11-03T08:49:02;13.00;99.90
39099;DHT22;24844;52.380;7.018;2022-11-03T08:51:27;13.10;99.90
39099;DHT22;24844;52.380;7.018;2022-11-03T08:53:53;13.20;99.90
39099;DHT22;24844;52.380;7.018;2022-11-03T08:56:19;13.20;99.90
39099;DHT22;24844;52.380;7.018;2022-11-03T08:58:45;13.30;99.90
39099;DHT22;24844;52.380;7.018;2022-11-03T09:01:11;13.30;99.90
39099;DHT22;24844;52.380;7.018;2022-11-03T09:03:36;13.30;99.90
39099;DHT22;24844;52.380;7.018;2022-11-03T09:06:02;13.40;99.90
39099;DHT22;24844;52.380;7.018;2022-11-03T09:08:28;13.40;99.90
39099;DHT22;24844;52.380;7.018;2022-11-03T09:10:53;13.60;99.90
39099;DHT22;24844;52.380;7.018;2022-11-03T09:13:18;13.60;99.90
39099;DHT22;24844;52.380;7.018;2022-11-03T09:15:44;13.70;99.90
39099;DHT22;24844;52.380;7.018;2022-11-03T09:18:09;13.80;99.90
39099;DHT22;24844;52.380;7.018;2022-11-03T09:20:35;13.90;99.90
39099;DHT22;24844;52.380;7.018;2022-11-03T09:23:00;14.00;99.90
39099;DHT22;24844;52.380;7.018;2022-11-03T09:25:26;14.00;99.90
39099;DHT22;24844;52.380;7.018;2022-11-03T09:27:51;14.20;99.90
39099;DHT22;24844;52.380;7.018;2022-11-03T09:30:17;14.20;99.90
39099;DHT22;24844;52.380;7.018;2022-11-03T09:32:42;14.20;99.90
39099;DHT22;24844;52.380;7.018;2022-11-03T09:35:08;14.20;99.90
39099;DHT22;24844;52.380;7.018;2022-11-03T09:37:36;14.50;99.90
39099;DHT22;24844;52.380;7.018;2022-11-03T09:40:02;14.80;99.90
39099;DHT22;24844;52.380;7.018;2022-11-03T09:42:29;15.10;99.90
39099;DHT22;24844;52.380;7.018;2022-11-03T09:44:55;15.40;99.90
39099;DHT22;24844;52.380;7.018;2022-11-03T09:47:26;15.50;99.90
39099;DHT22;24844;52.380;7.018;2022-11-03T09:49:52;15.70;99.90
39099;DHT22;24844;52.380;7.018;2022-11-03T09:52:19;15.80;99.90
39099;DHT22;24844;52.380;7.018;2022-11-03T09:54:45;16.10;99.90
39099;DHT22;24844;52.380;7.018;2022-11-03T09:57:11;16.20;99.90
39099;DHT22;24844;52.380;7.018;2022-11-03T09:59:37;16.30;99.90
39099;DHT22;24844;52.380;7.018;2022-11-03T10:02:05;16.30;99.90
39099;DHT22;24844;52.380;7.018;2022-11-03T10:04:35;16.20;99.90
39099;DHT22;24844;52.380;7.018;2022-11-03T10:07:00;16.40;99.90
39099;DHT22;24844;52.380;7.018;2022-11-03T10:09:26;16.10;99.90
39099;DHT22;24844;52.380;7.018;2022-11-03T10:11:53;15.90;99.90
39099;DHT22;24844;52.380;7.018;2022-11-03T10:14:18;15.70;99.90
39099;DHT22;24844;52.380;7.018;2022-11-03T10:16:50;15.80;99.90
39099;DHT22;24844;52.380;7.018;2022-11-03T10:19:16;15.90;99.90
39099;DHT22;24844;52.380;7.018;2022-11-03T10:21:42;15.90;99.90
39099;DHT22;24844;52.380;7.018;2022-11-03T10:24:11;16.30;99.90
39099;DHT22;24844;52.380;7.018;2022-11-03T10:26:44;16.70;99.90
39099;DHT22;24844;52.380;7.018;2022-11-03T10:29:15;16.30;99.90
39099;DHT22;24844;52.380;7.018;2022-11-03T10:31:44;15.70;99.90
39099;DHT22;24844;52.380;7.018;2022-11-03T10:34:31;15.60;99.90
39099;DHT22;24844;52.380;7.018;2022-11-03T10:37:12;15.60;99.90
39099;DHT22;24844;52.380;7.018;2022-11-03T10:39:38;15.30;99.90
39099;DHT22;24844;52.380;7.018;2022-11-03T10:42:04;15.20;99.90
39099;DHT22;24844;52.380;7.018;2022-11-03T10:44:30;15.20;99.90
39099;DHT22;24844;52.380;7.018;2022-11-03T10:46:56;15.20;99.90
39099;DHT22;24844;52.380;7.018;2022-11-03T10:49:29;15.10;99.90
39099;DHT22;24844;52.380;7.018;2022-11-03T10:51:57;15.10;99.90
39099;DHT22;24844;52.380;7.018;2022-11-03T10:54:26;15.10;99.90
39099;DHT22;24844;52.380;7.018;2022-11-03T10:56:52;15.00;99.90
39099;DHT22;24844;52.380;7.018;2022-11-03T10:59:19;15.00;99.90
39099;DHT22;24844;52.380;7.018;2022-11-03T11:01:45;15.00;99.90
39099;DHT22;24844;52.380;7.018;2022-11-03T11:04:13;14.90;99.90
39099;DHT22;24844;52.380;7.018;2022-11-03T11:06:39;14.80;99.90
39099;DHT22;24844;52.380;7.018;2022-11-03T11:09:05;14.90;99.90
39099;DHT22;24844;52.380;7.018;2022-11-03T11:11:34;15.00;99.90
39099;DHT22;24844;52.380;7.018;2022-11-03T11:16:51;15.10;99.90
39099;DHT22;24844;52.380;7.018;2022-11-03T11:19:17;15.10;99.90
39099;DHT22;24844;52.380;7.018;2022-11-03T11:24:08;15.10;99.90
39099;DHT22;24844;52.380;7.018;2022-11-03T11:26:34;15.20;99.90
39099;DHT22;24844;52.380;7.018;2022-11-03T11:31:35;15.20;99.90
39099;DHT22;24844;52.380;7.018;2022-11-03T11:36:40;15.30;99.90
39099;DHT22;24844;52.380;7.018;2022-11-03T11:42:03;15.20;99.90
39099;DHT22;24844;52.380;7.018;2022-11-03T11:52:28;15.40;99.90
39099;DHT22;24844;52.380;7.018;2022-11-03T11:54:54;15.40;99.90
39099;DHT22;24844;52.380;7.018;2022-11-03T11:57:20;15.30;99.90
39099;DHT22;24844;52.380;7.018;2022-11-03T11:59:46;15.40;99.90
39099;DHT22;24844;52.380;7.018;2022-11-03T12:02:19;15.30;99.90
39099;DHT22;24844;52.380;7.018;2022-11-03T12:04:46;15.40;99.90
39099;DHT22;24844;52.380;7.018;2022-11-03T12:07:13;15.40;99.90
39099;DHT22;24844;52.380;7.018;2022-11-03T12:09:38;15.40;99.90
39099;DHT22;24844;52.380;7.018;2022-11-03T12:12:04;15.40;99.90
39099;DHT22;24844;52.380;7.018;2022-11-03T12:16:56;15.40;99.90
39099;DHT22;24844;52.380;7.018;2022-11-03T12:19:38;15.40;99.90
39099;DHT22;24844;52.380;7.018;2022-11-03T12:22:04;15.40;99.90
39099;DHT22;24844;52.380;7.018;2022-11-03T12:26:56;15.30;99.90
39099;DHT22;24844;52.380;7.018;2022-11-03T12:29:22;15.30;99.90
39099;DHT22;24844;52.380;7.018;2022-11-03T12:31:47;15.30;99.90
39099;DHT22;24844;52.380;7.018;2022-11-03T12:34:13;15.40;99.90
39099;DHT22;24844;52.380;7.018;2022-11-03T12:36:39;15.40;99.90
39099;DHT22;24844;52.380;7.018;2022-11-03T12:39:04;15.50;99.90
39099;DHT22;24844;52.380;7.018;2022-11-03T12:41:30;15.70;99.90
39099;DHT22;24844;52.380;7.018;2022-11-03T12:43:55;15.60;99.90
39099;DHT22;24844;52.380;7.018;2022-11-03T12:46:21;15.70;99.90
39099;DHT22;24844;52.380;7.018;2022-11-03T12:48:47;15.70;99.90
39099;DHT22;24844;52.380;7.018;2022-11-03T12:51:14;15.80;99.90
39099;DHT22;24844;52.380;7.018;2022-11-03T12:53:39;15.70;99.90
39099;DHT22;24844;52.380;7.018;2022-11-03T12:56:05;15.70;99.90
39099;DHT22;24844;52.380;7.018;2022-11-03T12:58:31;15.70;99.90
39099;DHT22;24844;52.380;7.018;2022-11-03T13:00:56;15.60;99.90
39099;DHT22;24844;52.380;7.018;2022-11-03T13:03:22;15.60;99.90
39099;DHT22;24844;52.380;7.018;2022-11-03T13:05:47;15.60;99.90
39099;DHT22;24844;52.380;7.018;2022-11-03T13:08:13;15.70;99.90
39099;DHT22;24844;52.380;7.018;2022-11-03T13:10:38;15.70;99.90
39099;DHT22;24844;52.380;7.018;2022-11-03T13:13:05;15.80;99.90
39099;DHT22;24844;52.380;7.018;2022-11-03T13:15:30;15.80;99.90
39099;DHT22;24844;52.380;7.018;2022-11-03T13:17:56;15.80;99.90
39099;DHT22;24844;52.380;7.018;2022-11-03T13:20:21;15.80;99.90
39099;DHT22;24844;52.380;7.018;2022-11-03T13:22:47;15.80;99.90
39099;DHT22;24844;52.380;7.018;2022-11-03T13:25:12;15.90;99.90
39099;DHT22;24844;52.380;7.018;2022-11-03T13:27:38;15.90;99.90
39099;DHT22;24844;52.380;7.018;2022-11-03T13:30:04;15.90;99.90
39099;DHT22;24844;52.380;7.018;2022-11-03T13:32:29;15.80;99.90
39099;DHT22;24844;52.380;7.018;2022-11-03T13:34:55;15.90;99.90
39099;DHT22;24844;52.380;7.018;2022-11-03T13:37:20;16.00;99.90
39099;DHT22;24844;52.380;7.018;2022-11-03T13:39:46;16.00;99.90
39099;DHT22;24844;52.380;7.018;2022-11-03T13:42:11;16.10;99.90
39099;DHT22;24844;52.380;7.018;2022-11-03T13:44:37;16.00;99.90
39099;DHT22;24844;52.380;7.018;2022-11-03T13:47:02;16.10;99.90
39099;DHT22;24844;52.380;7.018;2022-11-03T13:49:28;16.20;99.90
39099;DHT22;24844;52.380;7.018;2022-11-03T13:51:54;16.10;99.90
39099;DHT22;24844;52.380;7.018;2022-11-03T13:54:19;16.20;99.90
39099;DHT22;24844;52.380;7.018;2022-11-03T13:56:45;16.10;99.90
39099;DHT22;24844;52.380;7.018;2022-11-03T13:59:10;16.10;99.90
39099;DHT22;24844;52.380;7.018;2022-11-03T14:01:36;16.00;99.90
39099;DHT22;24844;52.380;7.018;2022-11-03T14:04:02;16.00;99.90
39099;DHT22;24844;52.380;7.018;2022-11-03T14:06:27;16.00;99.90
39099;DHT22;24844;52.380;7.018;2022-11-03T14:08:53;16.00;99.90
39099;DHT22;24844;52.380;7.018;2022-11-03T14:11:18;16.00;99.90
39099;DHT22;24844;52.380;7.018;2022-11-03T14:14:02;16.00;99.90
39099;DHT22;24844;52.380;7.018;2022-11-03T14:16:28;16.00;99.90
39099;DHT22;24844;52.380;7.018;2022-11-03T14:18:53;16.00;99.90
39099;DHT22;24844;52.380;7.018;2022-11-03T14:21:19;16.00;99.90
39099;DHT22;24844;52.380;7.018;2022-11-03T14:23:44;16.00;99.90
39099;DHT22;24844;52.380;7.018;2022-11-03T14:26:10;16.00;99.90
39099;DHT22;24844;52.380;7.018;2022-11-03T14:28:35;15.90;99.90
39099;DHT22;24844;52.380;7.018;2022-11-03T14:31:00;15.90;99.90
39099;DHT22;24844;52.380;7.018;2022-11-03T14:33:28;15.90;99.90
39099;DHT22;24844;52.380;7.018;2022-11-03T14:35:53;15.90;99.90
39099;DHT22;24844;52.380;7.018;2022-11-03T14:38:19;15.80;99.90
39099;DHT22;24844;52.380;7.018;2022-11-03T14:40:44;15.70;99.90
39099;DHT22;24844;52.380;7.018;2022-11-03T14:43:28;15.70;99.90
39099;DHT22;24844;52.380;7.018;2022-11-03T14:45:54;15.70;99.90
39099;DHT22;24844;52.380;7.018;2022-11-03T14:48:19;15.70;99.90
39099;DHT22;24844;52.380;7.018;2022-11-03T14:50:45;15.70;99.90
39099;DHT22;24844;52.380;7.018;2022-11-03T14:53:10;15.70;99.90
39099;DHT22;24844;52.380;7.018;2022-11-03T14:55:36;15.60;99.90
39099;DHT22;24844;52.380;7.018;2022-11-03T14:58:01;15.60;99.90
39099;DHT22;24844;52.380;7.018;2022-11-03T15:00:27;15.50;99.90
39099;DHT22;24844;52.380;7.018;2022-11-03T15:02:52;15.50;99.90
39099;DHT22;24844;52.380;7.018;2022-11-03T15:05:18;15.50;99.90
39099;DHT22;24844;52.380;7.018;2022-11-03T15:08:02;15.40;99.90
39099;DHT22;24844;52.380;7.018;2022-11-03T15:10:27;15.40;99.90
39099;DHT22;24844;52.380;7.018;2022-11-03T15:12:53;15.40;99.90
39099;DHT22;24844;52.380;7.018;2022-11-03T15:15:18;15.40;99.90
39099;DHT22;24844;52.380;7.018;2022-11-03T15:17:44;15.40;99.90
39099;DHT22;24844;52.380;7.018;2022-11-03T15:20:09;15.40;99.90
39099;DHT22;24844;52.380;7.018;2022-11-03T15:22:35;15.40;99.90
39099;DHT22;24844;52.380;7.018;2022-11-03T15:25:00;15.40;99.90
39099;DHT22;24844;52.380;7.018;2022-11-03T15:27:26;15.40;99.90
39099;DHT22;24844;52.380;7.018;2022-11-03T15:29:51;15.30;99.90
39099;DHT22;24844;52.380;7.018;2022-11-03T15:32:17;15.30;99.90
39099;DHT22;24844;52.380;7.018;2022-11-03T15:34:42;15.30;99.90
39099;DHT22;24844;52.380;7.018;2022-11-03T15:37:08;15.30;99.90
39099;DHT22;24844;52.380;7.018;2022-11-03T15:39:33;15.30;99.90
39099;DHT22;24844;52.380;7.018;2022-11-03T15:41:59;15.20;99.90
39099;DHT22;24844;52.380;7.018;2022-11-03T15:44:24;15.20;99.90
39099;DHT22;24844;52.380;7.018;2022-11-03T15:46:50;15.20;99.90
39099;DHT22;24844;52.380;7.018;2022-11-03T15:49:15;15.10;99.90
39099;DHT22;24844;52.380;7.018;2022-11-03T15:51:41;14.70;99.90
39099;DHT22;24844;52.380;7.018;2022-11-03T15:54:06;14.30;99.90
39099;DHT22;24844;52.380;7.018;2022-11-03T15:56:32;13.80;99.90
39099;DHT22;24844;52.380;7.018;2022-11-03T15:58:57;13.40;99.90
39099;DHT22;24844;52.380;7.018;2022-11-03T16:01:23;13.10;99.90
39099;DHT22;24844;52.380;7.018;2022-11-03T16:03:49;12.80;99.90
39099;DHT22;24844;52.380;7.018;2022-11-03T16:06:14;12.60;99.90
39099;DHT22;24844;52.380;7.018;2022-11-03T16:08:40;12.50;99.90
39099;DHT22;24844;52.380;7.018;2022-11-03T16:11:05;12.40;99.90
39099;DHT22;24844;52.380;7.018;2022-11-03T16:13:31;12.40;99.90
39099;DHT22;24844;52.380;7.018;2022-11-03T16:15:56;12.30;99.90
39099;DHT22;24844;52.380;7.018;2022-11-03T16:18:22;12.20;99.90